sensor_id;sensor_type;location;lat;lon;timestamp;pressure;altitude;pressure_sealevel;temperature;humidity
70027;BME280;57506;50.092;15.804;2022-08-05T00:01:57;98951.88;;;18.44;71.75
70027;BME280;57506;50.092;15.804;2022-08-05T00:04:23;98947.88;;;18.52;70.71
70027;BME280;57506;50.092;15.804;2022-08-05T00:06:48;98941.22;;;18.60;69.60
70027;BME280;57506;50.092;15.804;2022-08-05T00:09:14;98944.03;;;18.48;72.82
70027;BME280;57506;50.092;15.804;2022-08-05T00:11:39;98929.34;;;18.15;71.04
70027;BME280;57506;50.092;15.804;2022-08-05T00:14:05;98942.22;;;18.03;72.21
70027;BME280;57506;50.092;15.804;2022-08-05T00:16:31;98944.72;;;18.05;71.72
70027;BME280;57506;50.092;15.804;2022-08-05T00:18:56;98936.97;;;18.13;71.43
70027;BME280;57506;50.092;15.804;2022-08-05T00:21:21;98946.34;;;18.23;71.06
70027;BME280;57506;50.092;15.804;2022-08-05T00:23:47;98930.16;;;18.33;69.46
70027;BME280;57506;50.092;15.804;2022-08-05T00:26:13;98942.44;;;18.35;69.58
70027;BME280;57506;50.092;15.804;2022-08-05T00:28:39;98935.06;;;18.14;70.93
70027;BME280;57506;50.092;15.804;2022-08-05T00:31:06;98946.94;;;18.08;71.39
70027;BME280;57506;50.092;15.804;2022-08-05T00:33:32;98941.91;;;18.00;72.32
70027;BME280;57506;50.092;15.804;2022-08-05T00:35:58;98941.81;;;17.95;72.53
70027;BME280;57506;50.092;15.804;2022-08-05T00:38:23;98924.97;;;17.64;73.75
70027;BME280;57506;50.092;15.804;2022-08-05T00:40:54;98939.75;;;17.68;73.41
70027;BME280;57506;50.092;15.804;2022-08-05T00:43:20;98942.75;;;17.83;73.51
70027;BME280;57506;50.092;15.804;2022-08-05T00:45:47;98931.31;;;17.70;74.76
70027;BME280;57506;50.092;15.804;2022-08-05T00:48:18;98938.13;;;17.56;75.96
70027;BME280;57506;50.092;15.804;2022-08-05T00:50:45;98936.53;;;17.43;76.68
70027;BME280;57506;50.092;15.804;2022-08-05T00:53:13;98936.25;;;17.28;76.23
70027;BME280;57506;50.092;15.804;2022-08-05T00:55:40;98921.16;;;17.08;76.70
70027;BME280;57506;50.092;15.804;2022-08-05T00:58:05;98918.69;;;17.07;77.08
70027;BME280;57506;50.092;15.804;2022-08-05T01:00:31;98927.00;;;17.00;76.20
70027;BME280;57506;50.092;15.804;2022-08-05T01:02:57;98932.44;;;17.00;75.82
70027;BME280;57506;50.092;15.804;2022-08-05T01:05:24;98924.88;;;17.02;75.42
70027;BME280;57506;50.092;15.804;2022-08-05T01:07:50;98918.34;;;17.03;76.09
70027;BME280;57506;50.092;15.804;2022-08-05T01:10:18;98918.03;;;17.45;74.61
70027;BME280;57506;50.092;15.804;2022-08-05T01:12:49;98915.97;;;17.64;73.42
70027;BME280;57506;50.092;15.804;2022-08-05T01:15:20;98923.47;;;17.90;72.84
70027;BME280;57506;50.092;15.804;2022-08-05T01:17:54;98915.78;;;18.04;72.30
70027;BME280;57506;50.092;15.804;2022-08-05T01:21:09;98916.03;;;18.02;71.58
70027;BME280;57506;50.092;15.804;2022-08-05T01:26:34;98912.19;;;17.81;72.06
70027;BME280;57506;50.092;15.804;2022-08-05T01:29:32;98917.72;;;17.58;72.65
70027;BME280;57506;50.092;15.804;2022-08-05T01:32:01;98906.97;;;17.35;73.29
70027;BME280;57506;50.092;15.804;2022-08-05T01:34:35;98902.72;;;17.27;73.33
70027;BME280;57506;50.092;15.804;2022-08-05T01:37:16;98896.63;;;17.20;72.73
70027;BME280;57506;50.092;15.804;2022-08-05T01:39:45;98909.31;;;17.14;73.26
70027;BME280;57506;50.092;15.804;2022-08-05T01:42:16;98909.41;;;16.79;75.06
70027;BME280;57506;50.092;15.804;2022-08-05T01:44:45;98908.28;;;16.52;75.84
70027;BME280;57506;50.092;15.804;2022-08-05T01:47:14;98901.44;;;16.26;77.81
70027;BME280;57506;50.092;15.804;2022-08-05T01:49:40;98906.41;;;16.18;79.74
70027;BME280;57506;50.092;15.804;2022-08-05T01:52:08;98898.84;;;15.96;79.70
70027;BME280;57506;50.092;15.804;2022-08-05T01:54:39;98902.97;;;15.87;80.28
70027;BME280;57506;50.092;15.804;2022-08-05T01:57:07;98897.28;;;15.77;81.51
70027;BME280;57506;50.092;15.804;2022-08-05T01:59:34;98899.16;;;15.65;82.53
70027;BME280;57506;50.092;15.804;2022-08-05T02:02:01;98901.41;;;15.56;82.60
70027;BME280;57506;50.092;15.804;2022-08-05T02:04:28;98901.78;;;15.71;80.95
70027;BME280;57506;50.092;15.804;2022-08-05T02:06:57;98884.06;;;15.81;79.92
70027;BME280;57506;50.092;15.804;2022-08-05T02:09:23;98886.44;;;16.12;78.56
70027;BME280;57506;50.092;15.804;2022-08-05T02:12:13;98891.22;;;16.57;76.83
70027;BME280;57506;50.092;15.804;2022-08-05T02:14:49;98886.38;;;17.27;73.89
70027;BME280;57506;50.092;15.804;2022-08-05T02:17:24;98882.63;;;17.45;71.65
70027;BME280;57506;50.092;15.804;2022-08-05T02:19:58;98872.50;;;18.07;70.41
70027;BME280;57506;50.092;15.804;2022-08-05T02:22:30;98878.84;;;18.13;69.61
70027;BME280;57506;50.092;15.804;2022-08-05T02:25:03;98889.94;;;17.90;70.57
70027;BME280;57506;50.092;15.804;2022-08-05T02:27:32;98891.00;;;17.72;70.59
70027;BME280;57506;50.092;15.804;2022-08-05T02:29:59;98889.09;;;18.06;69.85
70027;BME280;57506;50.092;15.804;2022-08-05T02:32:27;98881.94;;;17.83;70.24
70027;BME280;57506;50.092;15.804;2022-08-05T02:35:00;98877.31;;;17.67;71.77
70027;BME280;57506;50.092;15.804;2022-08-05T02:37:29;98873.84;;;17.26;73.29
70027;BME280;57506;50.092;15.804;2022-08-05T02:39:56;98880.13;;;16.98;74.44
70027;BME280;57506;50.092;15.804;2022-08-05T02:42:22;98886.94;;;16.72;75.80
70027;BME280;57506;50.092;15.804;2022-08-05T02:44:48;98875.44;;;16.30;78.09
70027;BME280;57506;50.092;15.804;2022-08-05T02:47:15;98879.09;;;16.24;78.23
70027;BME280;57506;50.092;15.804;2022-08-05T02:49:42;98875.78;;;16.10;79.37
70027;BME280;57506;50.092;15.804;2022-08-05T02:52:11;98863.41;;;16.03;80.03
70027;BME280;57506;50.092;15.804;2022-08-05T02:54:39;98866.47;;;16.18;80.54
70027;BME280;57506;50.092;15.804;2022-08-05T02:57:16;98882.53;;;15.96;82.23
70027;BME280;57506;50.092;15.804;2022-08-05T02:59:45;98881.34;;;15.69;84.10
70027;BME280;57506;50.092;15.804;2022-08-05T03:02:12;98882.69;;;15.48;84.80
70027;BME280;57506;50.092;15.804;2022-08-05T03:04:40;98879.56;;;15.33;85.25
70027;BME280;57506;50.092;15.804;2022-08-05T03:07:08;98882.34;;;15.15;85.61
70027;BME280;57506;50.092;15.804;2022-08-05T03:09:35;98882.34;;;15.15;84.75
70027;BME280;57506;50.092;15.804;2022-08-05T03:12:01;98892.94;;;15.04;86.54
70027;BME280;57506;50.092;15.804;2022-08-05T03:14:26;98863.75;;;14.70;87.47
70027;BME280;57506;50.092;15.804;2022-08-05T03:16:52;98886.97;;;14.66;87.29
70027;BME280;57506;50.092;15.804;2022-08-05T03:19:17;98874.19;;;14.55;87.59
70027;BME280;57506;50.092;15.804;2022-08-05T03:21:43;98888.41;;;14.50;89.79
70027;BME280;57506;50.092;15.804;2022-08-05T03:24:09;98868.72;;;14.36;88.59
70027;BME280;57506;50.092;15.804;2022-08-05T03:26:35;98885.25;;;14.53;88.73
70027;BME280;57506;50.092;15.804;2022-08-05T03:29:02;98873.78;;;14.69;89.21
70027;BME280;57506;50.092;15.804;2022-08-05T03:31:28;98876.13;;;14.66;89.30
70027;BME280;57506;50.092;15.804;2022-08-05T03:33:54;98863.34;;;14.55;88.60
70027;BME280;57506;50.092;15.804;2022-08-05T03:36:19;98876.06;;;14.54;88.90
70027;BME280;57506;50.092;15.804;2022-08-05T03:38:46;98880.88;;;14.52;88.26
70027;BME280;57506;50.092;15.804;2022-08-05T03:41:11;98873.78;;;14.51;90.74
70027;BME280;57506;50.092;15.804;2022-08-05T03:43:37;98877.47;;;14.39;91.09
70027;BME280;57506;50.092;15.804;2022-08-05T03:46:03;98875.19;;;14.35;90.08
70027;BME280;57506;50.092;15.804;2022-08-05T03:48:30;98888.75;;;14.35;91.90
70027;BME280;57506;50.092;15.804;2022-08-05T03:53:37;98884.91;;;14.25;92.52
70027;BME280;57506;50.092;15.804;2022-08-05T03:56:11;98879.28;;;14.26;91.38
70027;BME280;57506;50.092;15.804;2022-08-05T03:58:41;98876.34;;;14.28;92.34
70027;BME280;57506;50.092;15.804;2022-08-05T04:01:08;98874.75;;;14.20;92.41
70027;BME280;57506;50.092;15.804;2022-08-05T04:03:36;98875.34;;;14.22;92.08
70027;BME280;57506;50.092;15.804;2022-08-05T04:06:04;98877.63;;;14.25;93.22
70027;BME280;57506;50.092;15.804;2022-08-05T04:08:32;98877.63;;;14.25;92.15
70027;BME280;57506;50.092;15.804;2022-08-05T04:10:58;98882.13;;;14.31;93.76
70027;BME280;57506;50.092;15.804;2022-08-05T04:13:25;98875.81;;;14.38;94.16
70027;BME280;57506;50.092;15.804;2022-08-05T04:15:51;98884.75;;;14.45;94.00
70027;BME280;57506;50.092;15.804;2022-08-05T04:18:17;98892.16;;;14.49;92.95
70027;BME280;57506;50.092;15.804;2022-08-05T04:20:43;98877.03;;;14.60;92.39
70027;BME280;57506;50.092;15.804;2022-08-05T04:23:09;98881.97;;;14.81;92.34
70027;BME280;57506;50.092;15.804;2022-08-05T04:25:35;98866.72;;;14.98;92.48
70027;BME280;57506;50.092;15.804;2022-08-05T04:28:01;98875.56;;;15.35;91.79
70027;BME280;57506;50.092;15.804;2022-08-05T04:30:26;98879.22;;;15.71;89.72
70027;BME280;57506;50.092;15.804;2022-08-05T04:32:52;98870.59;;;16.09;86.30
70027;BME280;57506;50.092;15.804;2022-08-05T04:35:17;98878.94;;;16.42;88.85
70027;BME280;57506;50.092;15.804;2022-08-05T04:37:43;98871.09;;;16.58;85.70
70027;BME280;57506;50.092;15.804;2022-08-05T04:40:09;98882.00;;;16.69;86.32
70027;BME280;57506;50.092;15.804;2022-08-05T04:42:35;98862.97;;;16.69;87.52
70027;BME280;57506;50.092;15.804;2022-08-05T04:45:01;98876.72;;;16.91;88.61
70027;BME280;57506;50.092;15.804;2022-08-05T04:47:26;98874.88;;;17.08;88.12
70027;BME280;57506;50.092;15.804;2022-08-05T04:49:52;98871.59;;;17.23;85.88
70027;BME280;57506;50.092;15.804;2022-08-05T04:52:18;98866.19;;;17.40;86.89
70027;BME280;57506;50.092;15.804;2022-08-05T04:54:43;98869.97;;;17.67;82.53
70027;BME280;57506;50.092;15.804;2022-08-05T04:57:09;98857.41;;;18.00;75.69
70027;BME280;57506;50.092;15.804;2022-08-05T04:59:34;98867.47;;;18.38;73.05
70027;BME280;57506;50.092;15.804;2022-08-05T05:02:00;98861.09;;;18.49;73.17
70027;BME280;57506;50.092;15.804;2022-08-05T05:04:26;98847.47;;;18.54;72.48
70027;BME280;57506;50.092;15.804;2022-08-05T05:06:51;98863.97;;;18.81;73.00
70027;BME280;57506;50.092;15.804;2022-08-05T05:09:16;98876.72;;;18.97;70.87
70027;BME280;57506;50.092;15.804;2022-08-05T05:11:42;98876.09;;;19.17;70.84
70027;BME280;57506;50.092;15.804;2022-08-05T05:14:07;98872.66;;;19.27;70.03
70027;BME280;57506;50.092;15.804;2022-08-05T05:16:33;98860.78;;;19.43;68.78
70027;BME280;57506;50.092;15.804;2022-08-05T05:18:59;98873.75;;;19.84;68.48
70027;BME280;57506;50.092;15.804;2022-08-05T05:21:24;98864.69;;;19.79;67.80
70027;BME280;57506;50.092;15.804;2022-08-05T05:23:50;98867.66;;;20.09;66.63
70027;BME280;57506;50.092;15.804;2022-08-05T05:26:15;98863.66;;;20.27;67.65
70027;BME280;57506;50.092;15.804;2022-08-05T05:28:41;98870.50;;;20.30;67.09
70027;BME280;57506;50.092;15.804;2022-08-05T05:31:06;98868.50;;;20.57;67.01
70027;BME280;57506;50.092;15.804;2022-08-05T05:33:32;98867.13;;;20.54;66.43
70027;BME280;57506;50.092;15.804;2022-08-05T05:35:57;98872.25;;;21.08;63.05
70027;BME280;57506;50.092;15.804;2022-08-05T05:38:23;98876.72;;;21.24;61.92
70027;BME280;57506;50.092;15.804;2022-08-05T05:40:48;98869.59;;;21.23;63.81
70027;BME280;57506;50.092;15.804;2022-08-05T05:43:14;98857.00;;;21.43;61.96
70027;BME280;57506;50.092;15.804;2022-08-05T05:45:40;98864.69;;;21.71;60.61
70027;BME280;57506;50.092;15.804;2022-08-05T05:48:05;98862.50;;;21.88;59.98
70027;BME280;57506;50.092;15.804;2022-08-05T05:50:31;98859.75;;;22.09;58.74
70027;BME280;57506;50.092;15.804;2022-08-05T05:52:57;98864.38;;;22.28;58.68
70027;BME280;57506;50.092;15.804;2022-08-05T05:55:23;98868.72;;;22.55;57.15
70027;BME280;57506;50.092;15.804;2022-08-05T05:57:48;98877.75;;;22.60;58.24
70027;BME280;57506;50.092;15.804;2022-08-05T06:00:17;98869.75;;;22.79;57.34
70027;BME280;57506;50.092;15.804;2022-08-05T06:02:44;98876.81;;;22.95;56.24
70027;BME280;57506;50.092;15.804;2022-08-05T06:05:11;98864.97;;;23.00;57.82
70027;BME280;57506;50.092;15.804;2022-08-05T06:07:37;98877.50;;;23.21;55.71
70027;BME280;57506;50.092;15.804;2022-08-05T06:10:07;98879.13;;;23.22;56.29
70027;BME280;57506;50.092;15.804;2022-08-05T06:12:34;98860.84;;;23.52;54.92
70027;BME280;57506;50.092;15.804;2022-08-05T06:15:01;98877.72;;;23.74;53.35
70027;BME280;57506;50.092;15.804;2022-08-05T06:17:28;98875.19;;;23.83;54.14
70027;BME280;57506;50.092;15.804;2022-08-05T06:19:53;98867.25;;;24.05;53.32
70027;BME280;57506;50.092;15.804;2022-08-05T06:22:32;98862.41;;;24.21;54.29
70027;BME280;57506;50.092;15.804;2022-08-05T06:24:59;98875.84;;;24.32;51.59
70027;BME280;57506;50.092;15.804;2022-08-05T06:27:25;98850.00;;;24.52;51.32
70027;BME280;57506;50.092;15.804;2022-08-05T06:29:50;98852.50;;;24.72;49.69
70027;BME280;57506;50.092;15.804;2022-08-05T06:32:16;98852.97;;;24.80;50.79
70027;BME280;57506;50.092;15.804;2022-08-05T06:34:42;98857.09;;;24.82;50.93
70027;BME280;57506;50.092;15.804;2022-08-05T06:37:08;98848.13;;;24.95;50.23
70027;BME280;57506;50.092;15.804;2022-08-05T06:39:33;98839.25;;;24.98;50.79
70027;BME280;57506;50.092;15.804;2022-08-05T06:42:00;98850.22;;;25.22;48.96
70027;BME280;57506;50.092;15.804;2022-08-05T06:44:27;98840.00;;;25.41;48.75
70027;BME280;57506;50.092;15.804;2022-08-05T06:46:53;98836.66;;;25.44;48.98
70027;BME280;57506;50.092;15.804;2022-08-05T06:49:18;98848.56;;;25.59;48.66
70027;BME280;57506;50.092;15.804;2022-08-05T06:51:43;98826.13;;;25.65;48.49
70027;BME280;57506;50.092;15.804;2022-08-05T06:54:09;98840.06;;;25.74;49.37
70027;BME280;57506;50.092;15.804;2022-08-05T06:56:34;98834.16;;;25.81;49.11
70027;BME280;57506;50.092;15.804;2022-08-05T06:59:01;98833.94;;;26.09;47.25
70027;BME280;57506;50.092;15.804;2022-08-05T07:01:27;98835.34;;;26.07;46.83
70027;BME280;57506;50.092;15.804;2022-08-05T07:03:52;98827.09;;;26.21;47.78
70027;BME280;57506;50.092;15.804;2022-08-05T07:06:18;98830.63;;;26.40;46.13
70027;BME280;57506;50.092;15.804;2022-08-05T07:08:43;98838.50;;;26.60;45.77
70027;BME280;57506;50.092;15.804;2022-08-05T07:11:11;98839.94;;;26.71;46.24
70027;BME280;57506;50.092;15.804;2022-08-05T07:13:36;98822.94;;;26.64;45.21
70027;BME280;57506;50.092;15.804;2022-08-05T07:16:21;98835.31;;;26.80;45.20
70027;BME280;57506;50.092;15.804;2022-08-05T07:19:04;98841.25;;;26.88;43.56
70027;BME280;57506;50.092;15.804;2022-08-05T07:21:30;98840.03;;;27.07;44.97
70027;BME280;57506;50.092;15.804;2022-08-05T07:23:56;98836.94;;;27.09;43.88
70027;BME280;57506;50.092;15.804;2022-08-05T07:26:22;98845.47;;;27.35;42.96
70027;BME280;57506;50.092;15.804;2022-08-05T07:28:47;98842.59;;;27.40;44.16
70027;BME280;57506;50.092;15.804;2022-08-05T07:31:15;98836.00;;;27.49;43.73
70027;BME280;57506;50.092;15.804;2022-08-05T07:33:41;98840.69;;;27.63;42.94
70027;BME280;57506;50.092;15.804;2022-08-05T07:36:06;98834.00;;;27.64;44.59
70027;BME280;57506;50.092;15.804;2022-08-05T07:38:34;98832.97;;;27.73;43.43
70027;BME280;57506;50.092;15.804;2022-08-05T07:41:03;98823.13;;;27.67;42.51
70027;BME280;57506;50.092;15.804;2022-08-05T07:43:28;98833.38;;;27.89;40.14
70027;BME280;57506;50.092;15.804;2022-08-05T07:45:57;98796.25;;;27.90;42.47
70027;BME280;57506;50.092;15.804;2022-08-05T07:48:23;98777.94;;;27.80;39.93
70027;BME280;57506;50.092;15.804;2022-08-05T07:50:49;98819.50;;;28.11;39.63
70027;BME280;57506;50.092;15.804;2022-08-05T07:53:15;98818.44;;;28.21;40.99
70027;BME280;57506;50.092;15.804;2022-08-05T07:55:40;98823.59;;;28.45;42.06
70027;BME280;57506;50.092;15.804;2022-08-05T07:58:06;98804.47;;;28.35;42.38
70027;BME280;57506;50.092;15.804;2022-08-05T08:00:31;98814.69;;;28.65;41.58
70027;BME280;57506;50.092;15.804;2022-08-05T08:02:57;98806.50;;;28.51;42.11
70027;BME280;57506;50.092;15.804;2022-08-05T08:05:23;98807.78;;;28.45;39.73
70027;BME280;57506;50.092;15.804;2022-08-05T08:07:48;98810.78;;;28.66;40.47
70027;BME280;57506;50.092;15.804;2022-08-05T08:10:14;98796.38;;;28.47;40.62
70027;BME280;57506;50.092;15.804;2022-08-05T08:12:40;98814.06;;;28.68;40.91
70027;BME280;57506;50.092;15.804;2022-08-05T08:15:08;98816.72;;;28.90;40.20
70027;BME280;57506;50.092;15.804;2022-08-05T08:17:34;98806.81;;;29.24;37.67
70027;BME280;57506;50.092;15.804;2022-08-05T08:19:59;98811.56;;;29.32;40.37
70027;BME280;57506;50.092;15.804;2022-08-05T08:22:26;98803.72;;;29.34;38.22
70027;BME280;57506;50.092;15.804;2022-08-05T08:24:52;98799.00;;;29.17;40.30
70027;BME280;57506;50.092;15.804;2022-08-05T08:27:18;98801.09;;;29.03;40.45
70027;BME280;57506;50.092;15.804;2022-08-05T08:29:43;98808.59;;;29.11;41.46
70027;BME280;57506;50.092;15.804;2022-08-05T08:32:09;98817.25;;;29.10;40.42
70027;BME280;57506;50.092;15.804;2022-08-05T08:34:34;98812.22;;;29.03;42.03
70027;BME280;57506;50.092;15.804;2022-08-05T08:37:00;98810.25;;;29.12;39.57
70027;BME280;57506;50.092;15.804;2022-08-05T08:39:26;98815.81;;;29.38;41.59
70027;BME280;57506;50.092;15.804;2022-08-05T08:41:53;98815.66;;;29.43;40.35
70027;BME280;57506;50.092;15.804;2022-08-05T08:44:23;98805.41;;;29.52;38.01
70027;BME280;57506;50.092;15.804;2022-08-05T08:46:50;98811.91;;;29.39;37.18
70027;BME280;57506;50.092;15.804;2022-08-05T08:49:18;98814.19;;;29.37;39.52
70027;BME280;57506;50.092;15.804;2022-08-05T08:51:48;98801.47;;;29.45;38.07
70027;BME280;57506;50.092;15.804;2022-08-05T08:54:16;98804.56;;;29.69;37.17
70027;BME280;57506;50.092;15.804;2022-08-05T08:56:42;98805.38;;;29.70;36.34
70027;BME280;57506;50.092;15.804;2022-08-05T08:59:07;98812.41;;;29.58;37.56
70027;BME280;57506;50.092;15.804;2022-08-05T09:01:33;98804.56;;;29.61;38.72
70027;BME280;57506;50.092;15.804;2022-08-05T09:03:59;98795.00;;;29.96;39.31
70027;BME280;57506;50.092;15.804;2022-08-05T09:06:27;98805.13;;;30.09;40.84
70027;BME280;57506;50.092;15.804;2022-08-05T09:08:54;98803.69;;;30.03;36.71
70027;BME280;57506;50.092;15.804;2022-08-05T09:11:20;98787.59;;;30.26;38.57
70027;BME280;57506;50.092;15.804;2022-08-05T09:13:46;98801.97;;;30.28;38.04
70027;BME280;57506;50.092;15.804;2022-08-05T09:16:12;98803.09;;;30.36;38.79
70027;BME280;57506;50.092;15.804;2022-08-05T09:18:38;98792.25;;;30.43;37.92
70027;BME280;57506;50.092;15.804;2022-08-05T09:21:04;98792.06;;;30.48;35.94
70027;BME280;57506;50.092;15.804;2022-08-05T09:23:29;98792.69;;;30.53;35.85
70027;BME280;57506;50.092;15.804;2022-08-05T09:26:08;98796.47;;;30.57;37.65
70027;BME280;57506;50.092;15.804;2022-08-05T09:28:35;98783.72;;;30.48;36.99
70027;BME280;57506;50.092;15.804;2022-08-05T09:31:11;98798.31;;;30.45;40.66
70027;BME280;57506;50.092;15.804;2022-08-05T09:33:50;98789.97;;;30.45;35.74
70027;BME280;57506;50.092;15.804;2022-08-05T09:36:16;98792.78;;;30.74;35.81
70027;BME280;57506;50.092;15.804;2022-08-05T09:39:04;98789.84;;;31.00;38.56
70027;BME280;57506;50.092;15.804;2022-08-05T09:41:29;98779.53;;;31.01;35.13
70027;BME280;57506;50.092;15.804;2022-08-05T09:43:55;98778.97;;;31.07;35.70
70027;BME280;57506;50.092;15.804;2022-08-05T09:48:51;98778.47;;;31.14;37.16
70027;BME280;57506;50.092;15.804;2022-08-05T09:51:36;98780.63;;;31.29;36.60
70027;BME280;57506;50.092;15.804;2022-08-05T09:54:07;98787.75;;;31.18;34.02
70027;BME280;57506;50.092;15.804;2022-08-05T09:56:41;98774.41;;;31.03;35.90
70027;BME280;57506;50.092;15.804;2022-08-05T09:59:11;98785.34;;;31.08;40.53
70027;BME280;57506;50.092;15.804;2022-08-05T10:01:41;98779.28;;;31.14;39.35
70027;BME280;57506;50.092;15.804;2022-08-05T10:04:12;98763.56;;;31.10;39.16
70027;BME280;57506;50.092;15.804;2022-08-05T10:06:52;98768.59;;;31.37;37.58
70027;BME280;57506;50.092;15.804;2022-08-05T10:09:18;98780.53;;;31.38;33.96
70027;BME280;57506;50.092;15.804;2022-08-05T10:11:48;98777.75;;;31.38;33.28
70027;BME280;57506;50.092;15.804;2022-08-05T10:14:26;98767.72;;;31.45;32.82
70027;BME280;57506;50.092;15.804;2022-08-05T10:16:53;98760.03;;;31.42;32.87
70027;BME280;57506;50.092;15.804;2022-08-05T10:19:24;98746.78;;;31.39;33.63
70027;BME280;57506;50.092;15.804;2022-08-05T10:21:50;98754.25;;;31.47;34.81
70027;BME280;57506;50.092;15.804;2022-08-05T10:24:20;98748.94;;;31.54;38.24
70027;BME280;57506;50.092;15.804;2022-08-05T10:26:47;98753.41;;;31.68;35.72
70027;BME280;57506;50.092;15.804;2022-08-05T10:29:13;98732.34;;;31.58;34.15
70027;BME280;57506;50.092;15.804;2022-08-05T10:31:38;98748.38;;;31.82;36.27
70027;BME280;57506;50.092;15.804;2022-08-05T10:34:08;98749.31;;;31.98;35.33
70027;BME280;57506;50.092;15.804;2022-08-05T10:36:35;98750.97;;;32.11;35.53
70027;BME280;57506;50.092;15.804;2022-08-05T10:39:23;98757.22;;;32.08;34.59
70027;BME280;57506;50.092;15.804;2022-08-05T10:41:58;98753.03;;;32.02;32.42
70027;BME280;57506;50.092;15.804;2022-08-05T10:44:25;98759.81;;;32.13;32.88
70027;BME280;57506;50.092;15.804;2022-08-05T10:46:55;98763.97;;;32.07;34.25
70027;BME280;57506;50.092;15.804;2022-08-05T10:49:23;98768.41;;;32.32;33.57
70027;BME280;57506;50.092;15.804;2022-08-05T10:51:52;98774.09;;;32.12;32.09
70027;BME280;57506;50.092;15.804;2022-08-05T10:54:48;98771.47;;;32.27;32.78
70027;BME280;57506;50.092;15.804;2022-08-05T10:57:25;98776.41;;;32.10;33.15
70027;BME280;57506;50.092;15.804;2022-08-05T11:00:06;98767.09;;;32.06;32.80
70027;BME280;57506;50.092;15.804;2022-08-05T11:02:32;98769.88;;;32.06;31.96
70027;BME280;57506;50.092;15.804;2022-08-05T11:04:58;98769.53;;;32.07;32.79
70027;BME280;57506;50.092;15.804;2022-08-05T11:07:23;98758.44;;;32.19;32.58
70027;BME280;57506;50.092;15.804;2022-08-05T11:09:50;98760.19;;;32.24;32.14
70027;BME280;57506;50.092;15.804;2022-08-05T11:17:36;98767.84;;;32.63;33.56
70027;BME280;57506;50.092;15.804;2022-08-05T11:20:04;98771.50;;;32.76;32.60
70027;BME280;57506;50.092;15.804;2022-08-05T11:22:46;98763.31;;;32.71;30.36
70027;BME280;57506;50.092;15.804;2022-08-05T11:25:32;98769.25;;;32.33;28.75
70027;BME280;57506;50.092;15.804;2022-08-05T11:36:01;98755.66;;;32.56;30.18
70027;BME280;57506;50.092;15.804;2022-08-05T11:41:25;98758.22;;;32.61;30.42
70027;BME280;57506;50.092;15.804;2022-08-05T11:43:57;98754.69;;;32.64;29.66
70027;BME280;57506;50.092;15.804;2022-08-05T11:49:13;98753.56;;;32.89;29.26
70027;BME280;57506;50.092;15.804;2022-08-05T11:51:47;98737.63;;;32.65;32.60
70027;BME280;57506;50.092;15.804;2022-08-05T11:54:35;98741.25;;;32.54;29.74
70027;BME280;57506;50.092;15.804;2022-08-05T11:57:03;98743.56;;;32.52;31.48
70027;BME280;57506;50.092;15.804;2022-08-05T11:59:29;98752.41;;;32.78;28.86
70027;BME280;57506;50.092;15.804;2022-08-05T12:02:05;98739.56;;;33.01;30.35
70027;BME280;57506;50.092;15.804;2022-08-05T12:04:45;98743.78;;;32.83;29.83
70027;BME280;57506;50.092;15.804;2022-08-05T12:07:14;98741.94;;;32.63;28.98
70027;BME280;57506;50.092;15.804;2022-08-05T12:09:46;98747.16;;;32.64;30.32
70027;BME280;57506;50.092;15.804;2022-08-05T12:12:12;98744.72;;;32.87;29.07
70027;BME280;57506;50.092;15.804;2022-08-05T12:14:44;98741.13;;;33.15;28.58
70027;BME280;57506;50.092;15.804;2022-08-05T12:17:13;98755.75;;;33.36;26.79
70027;BME280;57506;50.092;15.804;2022-08-05T12:19:46;98760.00;;;33.58;25.42
70027;BME280;57506;50.092;15.804;2022-08-05T12:22:17;98760.06;;;33.33;24.44
70027;BME280;57506;50.092;15.804;2022-08-05T12:24:45;98758.13;;;33.22;24.65
70027;BME280;57506;50.092;15.804;2022-08-05T12:27:22;98740.69;;;33.13;26.45
70027;BME280;57506;50.092;15.804;2022-08-05T12:30:03;98748.56;;;33.35;24.96
70027;BME280;57506;50.092;15.804;2022-08-05T12:32:31;98761.09;;;33.41;24.30
70027;BME280;57506;50.092;15.804;2022-08-05T12:34:57;98749.22;;;33.44;22.65
70027;BME280;57506;50.092;15.804;2022-08-05T12:37:23;98748.13;;;33.21;23.61
70027;BME280;57506;50.092;15.804;2022-08-05T12:39:49;98741.78;;;33.36;26.71
70027;BME280;57506;50.092;15.804;2022-08-05T12:42:17;98732.09;;;33.46;23.10
70027;BME280;57506;50.092;15.804;2022-08-05T12:44:44;98741.75;;;33.48;26.82
70027;BME280;57506;50.092;15.804;2022-08-05T12:47:11;98741.38;;;33.50;26.54
70027;BME280;57506;50.092;15.804;2022-08-05T12:49:45;98728.84;;;33.44;25.63
70027;BME280;57506;50.092;15.804;2022-08-05T12:52:13;98727.22;;;33.43;25.02
70027;BME280;57506;50.092;15.804;2022-08-05T12:54:39;98731.09;;;33.38;24.82
70027;BME280;57506;50.092;15.804;2022-08-05T12:57:06;98739.13;;;33.40;25.66
70027;BME280;57506;50.092;15.804;2022-08-05T12:59:53;98734.81;;;33.30;25.82
70027;BME280;57506;50.092;15.804;2022-08-05T13:02:24;98741.00;;;33.23;23.75
70027;BME280;57506;50.092;15.804;2022-08-05T13:04:51;98740.06;;;33.31;24.54
70027;BME280;57506;50.092;15.804;2022-08-05T13:07:22;98730.78;;;33.27;26.15
70027;BME280;57506;50.092;15.804;2022-08-05T13:09:52;98735.66;;;33.58;27.10
70027;BME280;57506;50.092;15.804;2022-08-05T13:12:21;98722.84;;;33.29;25.77
70027;BME280;57506;50.092;15.804;2022-08-05T13:14:49;98735.31;;;33.20;27.77
70027;BME280;57506;50.092;15.804;2022-08-05T13:17:24;98727.38;;;33.34;26.68
70027;BME280;57506;50.092;15.804;2022-08-05T13:22:31;98738.06;;;33.88;26.82
70027;BME280;57506;50.092;15.804;2022-08-05T13:24:58;98728.81;;;33.71;26.28
70027;BME280;57506;50.092;15.804;2022-08-05T13:29:50;98737.34;;;33.91;26.33